RJSU(METAR)
07/27 16:00
METAR RJSU 270700Z 10005KT 9999 FEW020 SCT040 BKN050 28/21 Q1000 RMK
1CU020 4CU040 5CU050 A2954=
戻る
トップページへ戻る
IMOC Co,.Ltd.